AirNav   Air Wisconsin Up To $57,000 Bonus
 
 934 users online  

KRYY Cobb County International Airport-McCollum Field
Atlanta, Georgia, USA

GOING TO ATLANTA?


FAA INFORMATION EFFECTIVE 09 SEPTEMBER 2021

Location

FAA Identifier: RYY
Lat/Long: 34-00-47.4000N 084-35-49.3000W
34-00.790000N 084-35.821667W
34.0131667,-84.5970278
(estimated)
Elevation: 1040.4 ft. / 317.1 m (surveyed)
Variation: 04W (2005)
From city: 21 miles NW of ATLANTA, GA
Time zone: UTC -4 (UTC -5 during Standard Time)
Zip code: 30144

Airport Operations

Airport use: Open to the public
Activation date: 12/1942
Control tower: yes
ARTCC: ATLANTA CENTER
FSS: MACON FLIGHT SERVICE STATION
NOTAMs facility: RYY (NOTAM-D service available)
Attendance: 0600-0000
Wind indicator: lighted
Segmented circle: yes
Lights: WHEN ATCT CLSD, ACTVT MALSF RWY 27; HIRL RWY 09/27 - CTAF.
Beacon: white-green (lighted land airport)
Operates sunset to sunrise.
Airline operations: INDEX B AIRCRAFT RESCUE AND FIRE FIGHTING EQUIPMENT AVAILABLE UPON REQUEST. 24 HOUR PRIOR PERMISSION REQUIRED. CONTACT AIRPORT MANAGER 770-528-1615.
International operations: international airport of entry
US CUSTOMS USER FEE ARPT.

Airport Communications

CTAF: 125.9
UNICOM: 122.7
ATIS: 128.125
WX AWOS-3PT: PHONE 770-425-3406
MC COLLUM GROUND: 119.0 [0700-2300]
MC COLLUM TOWER: 125.9 [0700-2300]
ATLANTA APPROACH: 121.0
ATLANTA DEPARTURE: 121.0
CLEARANCE DELIVERY: 119.0
BOKRT STAR: 119.8
WRGNZ STAR: 128.575
WX AWOS-3PT at VPC (14 nm NW): 120.525 (770-607-7866)
WX ASOS at FTY (15 nm S): PHONE 404-696-5660
WX ASOS at PDK (17 nm SE): 128.4 (770-457-1691)
WX AWOS-3 at PUJ (18 nm W): 126.225 (770-445-3870)
WX AWOS-3 at CNI (20 nm NE): 119.825 (770-704-6235)
  • WHEN ATCT CLSD USE 121.0 AT ATLANTA LARGE TRACON FOR CLEARANCE DELIVERY.

Nearby radio navigation aids

VOR radial/distance  VOR name  Freq  Var
PDKr304/17.0PEACHTREE VOR/DME116.6005W
ATLr346/24.4ATLANTA VORTAC116.9005W
RMGr108/27.5ROME VORTAC115.4001E

 
NDB name  Hdg/Dist  Freq  Var  ID
CHERO206/15.341505WDJD -.. .--- -..
FLOWERY BRANCH255/36.236503WFKV ..-. -.- ...-
CARROLLTON049/37.827804WGPQ --. .--. --.-

Airport Services

Fuel available: 100LL JET-A+
Parking: hangars and tiedowns
Airframe service: MAJOR
Powerplant service: MAJOR
Bottled oxygen: NONE
Bulk oxygen: HIGH/LOW

Runway Information

Runway 9/27

Dimensions: 6295 x 100 ft. / 1919 x 30 m
Surface: concrete/grooved, in good condition
Runway edge lights: high intensity
RUNWAY 9  RUNWAY 27
Latitude: 34-00.778198N34-00.800712N
Longitude: 084-36.444735W084-35.198760W
Elevation: 1040.4 ft.998.2 ft.
Traffic pattern: rightleft
Runway heading: 093 magnetic, 089 true273 magnetic, 269 true
Displaced threshold: 1062 ft.no
Declared distances: TORA:6311 TODA:6311 ASDA:6311 LDA:5233TORA:6311 TODA:6311 ASDA:5374 LDA:5374
Markings: nonprecision, in good conditionprecision, in good condition
Visual slope indicator: 4-light PAPI on left (4.00 degrees glide path)4-light PAPI on left (3.00 degrees glide path)
Approach lights: MALSF: 1,400 foot medium intensity approach lighting system with sequenced flashers
Runway end identifier lights: no
Touchdown point: yes, no lightsyes, no lights
Instrument approach: ILS
Obstructions: 26 ft. road, 1 ft. from runway, 3:1 slope to clear
ROAD 0-200 FROM RUNWAY END, 380' RIGHT AND 180' LEFT.
13 ft. trees, 720 ft. from runway, 400 ft. right of centerline, 40:1 slope to clear

Airport Ownership and Management from official FAA records

Ownership: Publicly-owned
Owner: COBB COUNTY
100 CHEROKEE STREET
MARIETTA, GA 30060
Phone 770-528-1615
Manager: KARL A VON HAGEL
1723 MCCOLLUM PKWY BLDG 100
KENNESAW, GA 30144
Phone 770-528-1615

Airport Operational Statistics

Aircraft based on the field: 277
Single engine airplanes: 184
Multi engine airplanes: 29
Jet airplanes: 49
Helicopters: 13
Gliders airplanes: 2
    
Aircraft operations: avg 226/day *
50% transient general aviation
46% local general aviation
3% air taxi
1% military
* for 12-month period ending 31 December 2019

Additional Remarks

BLASTING SR-SS MON-FRI 2000 FT AER 27.
TWY B CLSD FM TWY B5 TO B6 TO ACFT WITH WINGSPANS OF 79 FT OR GTR.
TURBINE/JET AIRCRAFT OPERATORS ARE REQUESTED TO USE NBAA NOISE ABATEMENT PROGRAM PROCEDURES OR COMPARABLE PROCEDURES OF AIRCRAFT MANUFACTURER.
INT'L OPS ARPT OF ENTRY - USER FEE AIRPORT
ARPT MOWING IN PROGRESS SPRING THRU AUTUMN.
COYOTES ON & INVOF ARPT.
RY 9 IS CALM WIND RY IN VFR CONDS.
NORTH APRON AT TWY A-1 CONNECTOR IS RESTRICTED TO GROUP 1 AFCT ONLY.

Instrument Procedures

NOTE: All procedures below are presented as PDF files. If you need a reader for these files, you should download the free Adobe Reader.

NOT FOR NAVIGATION. Please procure official charts for flight.
FAA instrument procedures published for use from 09 September 2021 at 0901Z to 07 October 2021 at 0900Z.

 
STARs - Standard Terminal Arrivals
BOKRT THREE (RNAV)   download (186KB)
BUKHD THREE (RNAV)   download (191KB)
DEHAN THREE (RNAV)   2 pages: [1] [2] (325KB)
DIFFI FOUR   download (185KB)
SWTEE TWO (RNAV)   download (148KB)
WRGNZ THREE (RNAV)   download (256KB)
 
IAPs - Instrument Approach Procedures
ILS OR LOC RWY 27   download (337KB)
RNAV (GPS) RWY 09   download (222KB)
RNAV (GPS) RWY 27   download (266KB)
VOR/DME RWY 09   download (249KB)
NOTE: Special Alternate Minimums apply   download (153KB)
NOTE: Special Take-Off Minimums/Departure Procedures apply   download (479KB)

Other nearby airports with instrument procedures:

KMGE - Dobbins ARB Airport (7 nm SE)
KVPC - Cartersville Airport (14 nm NW)
KFTY - Fulton County Executive Airport/Charlie Brown Field (15 nm S)
KPDK - Dekalb-Peachtree Airport (17 nm SE)
KPUJ - Paulding Northwest Atlanta Airport (18 nm W)
KCNI - Cherokee County Regional Airport (20 nm NE)
 
Loc | Ops | Rwys | IFR | FBO | Links
Com | Nav | Svcs | Stats | Notes
Area around KRYY (Cobb County International Airport-McCollum Field)
 
Road maps at: MapQuest Bing Google
 
Aerial photo
WARNING: Photo may not be current or correct
Aerial photo of KRYY (Cobb County International Airport-McCollum Field)
Photo taken 01-Apr-2012
looking northwest.

Do you have a better or more recent aerial photo of Cobb County International Airport-McCollum Field that you would like to share? If so, please send us your photo.

 
Sectional chart

 
Airport diagram
CAUTION: Diagram may not be current
Diagram of KRYY (Cobb County International Airport-McCollum Field)
Download PDF
of official airport diagram from the FAA

 
Airport distance calculator
Flying to Cobb County International Airport-McCollum Field? Find the distance to fly.

From to KRYY

Sunrise and sunset
Times for 25-Sep-2021
 Local
(UTC-4)
 Zulu
(UTC)
Morning civil twilight07:0511:05
Sunrise07:3011:30
Sunset19:3123:31
Evening civil twilight19:5623:56

Current date and time
Zulu (UTC)  25-Sep-2021 22:21:21
Local (UTC-4)  25-Sep-2021 18:21:21
 
METAR
KRYY 252150Z VRB03KT 10SM CLR 23/11 A3007 RMK AO2 SLP176 T02330111 $
KMGE 
7nm SE 
252156Z 28006KT 10SM FEW050 FEW250 24/10 A3006 RMK AO2A SLP176 T02440095 $
KFTY 
14nm S 
252153Z 33004KT 10SM CLR 24/11 A3006 RMK AO2 SLP172 T02440111
KVPC 
14nm NW 
252155Z AUTO 29004KT 10SM CLR 24/10 A3006 RMK AO2
KPDK 
17nm SE 
252153Z 32006KT 10SM CLR 24/09 A3006 RMK AO2 SLP171 T02390089
KPUJ 
18nm W 
252155Z AUTO 35003KT 10SM CLR 23/11 A3008 RMK AO2
KCNI 
20nm NE 
252155Z AUTO 28003KT 10SM CLR 23/10 A3008 RMK AO2
TAF
KRYY 251720Z 2518/2618 30007KT P6SM FEW050 SCT250 FM260100 00000KT P6SM SKC FM261500 32005KT P6SM SKC
KMGE 
7nm SE 
251300Z 2513/2619 28009KT 9999 SCT150 BKN250 QNH3011INS BECMG 2516/2517 30012KT 9999 FEW050 FEW150 BKN250 QNH3003INS BECMG 2523/2524 30005KT 9999 FEW250 QNH3002INS BECMG 2614/2615 30010KT 9999 FEW040 QNH3010INS TX26/2521Z TN13/2612Z
KFTY 
14nm S 
251720Z 2518/2618 29007KT P6SM FEW050 SCT250 FM260100 00000KT P6SM SKC FM261500 32005KT P6SM SKC
KPDK 
17nm SE 
251720Z 2518/2618 31007KT P6SM FEW050 SCT250 FM260100 00000KT P6SM SKC FM261500 33006KT P6SM SKC
NOTAMs
Click for the latest NOTAMs
NOTAMs are issued by the DoD/FAA and will open in a separate window not controlled by AirNav.

 

 
 

FBO, Fuel Providers, and Aircraft Ground Support

  
 Business Name 
 
 Contact 
 
 Services / Description 
 
Fuel Prices
 
Comments
  
Hawthorne Global Aviation Services ASRI 132.00
770-422-4300
toll-free 800-754-4300
[web site]
[email]
Whether you are coming to Atlanta for business or pleasure, let Hawthorne Global set the bar for first class service.

Located just 20 minutes from Atlanta, easy access to I-75 and I-285, new control tower, concrete 6295x100 ft. runway, hangars large enough for a G650, 50 acres of ramp space, first-class amenities, ONLY DEDICATED US CUSTOMS FACILITY IN ATLANTA AREA NOW OPEN...NO WAIT! ,and on-site restaurant, Elevation, Cobb County International Airport has become Atlanta's New Choice.

"Our professional and friendly staff have you taken care of from touchdown to take off."
More info and photos of Hawthorne Global Aviation Services
 
AirBoss™ fuel program   NATA Safety 1st   U.S. Government Contract Fuel   U.S. Customs Service   CAA Preferred FBO   AEG Fuels   Titan Rewards   Crew cars   Enterprise Rent-A-Car   Hertz  
 
Titan
100LL Jet A
FS $6.93 $6.30 
GUARANTEED
AirBossMEMBER
PRICING
FS $6.40 $5.40 
 
   3 read write
FS=Full service
Update Fuel Prices
 

Aviation Businesses, Services, and Facilities

  
 Business Name 
 
 Contact 
 
 Services / Description 
 
Distance
 
Comments
  
 Aero Atlanta Flight Center
770-422-2376
[web site]
[email]

Like us on facebook See us on instagram
Flight training, Aircraft rental, Aerial tours / aerial sightseeing, Aircraft cleaning / washing / detailing, Aviation accessories, Aircraft sales / leasing / brokerage, Aircraft management, ...
 
Cirrus   PSI FAA Test Center  
 
More info about Aero Atlanta Flight Center
on airport  
   write
 

Would you like to see your business listed on this page?

 If your business provides an interesting product or service to pilots, flight crews, aircraft, or users of the Cobb County International Airport-McCollum Field, you should consider listing it here.  To start the listing process, click on the button below
 
Add a business
 

Other Pages about Cobb County International Airport-McCollum Field

dot.cobbcountyga.gov/mccollum.htm
 
Update a link
 
Copyright © AirNav, LLC. All rights reserved. Privacy Policy  Contact